Terminal Aerodrome Forecast
Issued by NWS Sioux Falls, SD

Home | Current Version | Previous Version | Graphics & Text | Print | Product List | Glossary Off
Versions: 1 2 3 4 5 6 7 8 9 10 11 12 13

088
FTUS43 KFSD 221720
TAFHON
TAF
KHON 221720Z 2218/2318 VRB04KT P6SM OVC250
     FM222000 17012KT P6SM SCT080 OVC250
     FM230200 18008KT P6SM OVC100
     FM230900 13007KT P6SM -SHRA OVC035
     FM231500 14008KT P6SM OVC025=

USA.gov is the U.S. government's official web portal to all federal, state and local government web resources and services.